Pocos de Caldas, Brazil
Current Conditions -  °F | °C
As of 7:00 PM on Friday 28 Nov 2014 (Local Time) from SBPC Reporting Station
Overcast Overcast  
Wind Chill: 68°   Ceiling: 8000
Heat Index: 68°   Visibility: 6mi
Dew Point: 68°   Wind: 2mph
Humidity: 100%   Direction: 300°WNW
Pressure: 30.06"   Gusts: NA
Location:  21.78°S, 46.57°W
Report Text: SBPC 282100Z 30002KT 9999 SCT025 OVC080 20/20 Q1018 RETS
Loading
Personal Weather Stations






























Interactive Weather Map New forecast layout! Learn more

10-Day Weather Forecast

Advertisements
Track Severe Weather on mobile